Time;durP1;ratioP1;P1;durP2;ratioP2;P2;SDS_P1;SDS_P2;PMS_P1;PMS_P2;Temp;Humidity;BMP_temperature;BMP_pressure;BME280_temperature;BME280_humidity;BME280_pressure;Samples;Min_cycle;Max_cycle;Signal;HPM_P1;HPM_P2
2022/09/26 00:02:11;;;;;;;7.32;4.10;;;;;;;;;;4994592;28;20023;-65
2022/09/26 00:04:37;;;;;;;8.48;4.07;;;;;;;;;;4995363;28;20030;-65
2022/09/26 00:07:03;;;;;;;11.15;4.50;;;;;;;;;;4994659;28;20129;-65
2022/09/26 00:09:29;;;;;;;6.40;4.10;;;;;;;;;;4987375;28;20022;-65
2022/09/26 00:11:55;;;;;;;10.65;4.65;;;;;;;;;;4991852;28;20125;-65
2022/09/26 00:14:26;;;;;;;13.02;4.03;;;;;;;;;;4995324;28;20034;-65
2022/09/26 00:16:52;;;;;;;6.55;3.75;;;;;;;;;;4994667;28;20081;-65
2022/09/26 00:19:18;;;;;;;9.30;4.05;;;;;;;;;;4995102;28;20393;-65
2022/09/26 00:21:45;;;;;;;11.20;4.40;;;;;;;;;;4992768;28;20034;-65
2022/09/26 00:24:11;;;;;;;14.75;4.57;;;;;;;;;;4994901;28;20032;-65
2022/09/26 00:26:37;;;;;;;9.38;4.85;;;;;;;;;;4987243;28;20487;-65
2022/09/26 00:29:09;;;;;;;12.57;5.38;;;;;;;;;;4994616;28;20041;-65
2022/09/26 00:31:37;;;;;;;12.98;4.70;;;;;;;;;;4994700;28;20054;-65
2022/09/26 00:34:03;;;;;;;13.30;5.53;;;;;;;;;;4994563;28;20031;-65
2022/09/26 00:36:30;;;;;;;11.38;5.32;;;;;;;;;;4993470;28;20026;-65
2022/09/26 00:38:56;;;;;;;10.82;5.03;;;;;;;;;;4993100;28;20074;-65
2022/09/26 00:41:23;;;;;;;11.27;5.10;;;;;;;;;;4994495;28;20037;-65
2022/09/26 00:43:51;;;;;;;14.52;5.25;;;;;;;;;;4989722;28;20026;-65
2022/09/26 00:46:29;;;;;;;8.90;5.13;;;;;;;;;;4991372;28;20045;-65
2022/09/26 00:49:02;;;;;;;14.00;5.18;;;;;;;;;;4993799;28;20041;-65
2022/09/26 00:51:29;;;;;;;13.65;4.88;;;;;;;;;;4994437;28;20037;-65
2022/09/26 00:53:55;;;;;;;8.90;5.18;;;;;;;;;;5006747;28;20021;-65
2022/09/26 00:56:29;;;;;;;11.77;5.57;;;;;;;;;;4986299;28;20018;-65
2022/09/26 00:59:03;;;;;;;15.20;5.45;;;;;;;;;;4988915;28;20066;-65
2022/09/26 01:01:30;;;;;;;7.90;4.70;;;;;;;;;;4990389;28;20018;-65
2022/09/26 01:03:57;;;;;;;13.20;5.22;;;;;;;;;;4993890;28;20390;-65
2022/09/26 01:06:23;;;;;;;14.25;5.35;;;;;;;;;;4985441;28;20057;-65
2022/09/26 01:08:55;;;;;;;9.40;5.05;;;;;;;;;;4992460;28;20022;-65
2022/09/26 01:11:21;;;;;;;10.35;4.55;;;;;;;;;;4990620;28;20035;-65
2022/09/26 01:13:49;;;;;;;16.23;4.88;;;;;;;;;;4992473;28;20038;-65
2022/09/26 01:16:16;;;;;;;14.73;5.13;;;;;;;;;;4993274;28;20105;-65
2022/09/26 01:18:43;;;;;;;15.43;5.63;;;;;;;;;;4988996;28;20164;-65
2022/09/26 01:21:18;;;;;;;12.55;5.45;;;;;;;;;;4993850;28;20080;-65
2022/09/26 01:23:50;;;;;;;10.88;4.63;;;;;;;;;;4988855;28;20037;-65
2022/09/26 01:26:20;;;;;;;10.93;4.95;;;;;;;;;;4992207;28;20072;-65
2022/09/26 01:28:49;;;;;;;7.03;4.70;;;;;;;;;;4992515;28;20026;-65
2022/09/26 01:31:24;;;;;;;12.93;5.38;;;;;;;;;;4992157;28;20030;-65
2022/09/26 01:34:00;;;;;;;8.77;4.43;;;;;;;;;;4992207;28;20039;-65
2022/09/26 01:36:29;;;;;;;10.52;4.65;;;;;;;;;;4991728;28;20022;-65
2022/09/26 01:39:27;;;;;;;7.40;4.13;;;;;;;;;;4987414;28;20081;-65
2022/09/26 01:41:54;;;;;;;10.85;4.55;;;;;;;;;;4908594;29;20040;-65
2022/09/26 01:44:20;;;;;;;9.93;4.15;;;;;;;;;;4931032;29;20087;-65
2022/09/26 01:46:55;;;;;;;13.00;4.53;;;;;;;;;;4917531;29;20039;-65
2022/09/26 01:49:31;;;;;;;13.32;3.65;;;;;;;;;;4916141;29;20035;-65
2022/09/26 01:52:00;;;;;;;11.55;4.10;;;;;;;;;;4925184;29;20044;-65
2022/09/26 01:54:30;;;;;;;10.15;4.40;;;;;;;;;;4945008;29;20418;-65
2022/09/26 01:56:57;;;;;;;8.00;3.67;;;;;;;;;;4920305;29;20056;-65
2022/09/26 01:59:27;;;;;;;9.48;4.07;;;;;;;;;;4921578;29;20016;-65
2022/09/26 02:01:56;;;;;;;12.90;4.03;;;;;;;;;;4916942;29;20035;-65
2022/09/26 02:04:26;;;;;;;7.22;3.60;;;;;;;;;;4932958;29;20079;-65
2022/09/26 02:07:13;;;;;;;9.63;3.72;;;;;;;;;;4916721;29;20527;-65
2022/09/26 02:09:42;;;;;;;10.52;3.45;;;;;;;;;;4924740;29;20403;-65
2022/09/26 02:12:12;;;;;;;8.68;3.22;;;;;;;;;;4916583;29;20036;-65
2022/09/26 02:14:40;;;;;;;11.57;3.55;;;;;;;;;;4917309;29;20028;-65
2022/09/26 02:17:16;;;;;;;14.25;3.33;;;;;;;;;;4951940;28;20030;-65
2022/09/26 02:19:48;;;;;;;9.75;3.45;;;;;;;;;;4991384;28;20038;-65
2022/09/26 02:22:14;;;;;;;8.98;2.97;;;;;;;;;;4990381;28;20022;-65
2022/09/26 02:24:40;;;;;;;5.28;2.97;;;;;;;;;;4991337;28;20490;-65
2022/09/26 02:27:06;;;;;;;12.43;3.25;;;;;;;;;;4992330;28;20053;-65
2022/09/26 02:29:33;;;;;;;7.65;2.70;;;;;;;;;;4989879;28;20026;-65
2022/09/26 02:32:11;;;;;;;10.07;2.95;;;;;;;;;;4989298;28;20027;-65
2022/09/26 02:34:39;;;;;;;7.68;2.70;;;;;;;;;;4991169;28;20066;-65
2022/09/26 02:37:06;;;;;;;3.28;2.30;;;;;;;;;;4991076;28;20033;-65
2022/09/26 02:39:33;;;;;;;6.07;2.65;;;;;;;;;;4990795;28;20046;-65
2022/09/26 02:42:09;;;;;;;7.22;2.42;;;;;;;;;;4986356;28;20413;-65
2022/09/26 02:44:42;;;;;;;9.13;2.55;;;;;;;;;;5005313;28;20030;-65
2022/09/26 02:47:20;;;;;;;6.50;2.55;;;;;;;;;;5006632;28;20025;-65
2022/09/26 02:49:46;;;;;;;4.07;2.13;;;;;;;;;;5011171;28;20070;-65
2022/09/26 02:52:24;;;;;;;7.13;2.58;;;;;;;;;;5003118;28;20033;-65
2022/09/26 02:55:05;;;;;;;9.65;3.50;;;;;;;;;;4975605;28;20109;-65
2022/09/26 02:57:43;;;;;;;6.60;2.47;;;;;;;;;;4982434;28;20034;-65
2022/09/26 03:00:15;;;;;;;4.65;2.00;;;;;;;;;;4996369;28;20037;-65
2022/09/26 03:02:48;;;;;;;9.77;1.98;;;;;;;;;;4992990;28;20576;-65
2022/09/26 03:05:19;;;;;;;6.35;2.75;;;;;;;;;;4988047;28;20505;-65
2022/09/26 03:08:01;;;;;;;7.13;1.98;;;;;;;;;;4992342;28;20034;-65
2022/09/26 03:10:29;;;;;;;3.25;1.80;;;;;;;;;;4990502;28;20446;-65
2022/09/26 03:13:00;;;;;;;6.38;2.20;;;;;;;;;;4991360;28;20037;-65
2022/09/26 03:15:27;;;;;;;8.18;2.22;;;;;;;;;;4992289;28;20026;-65
2022/09/26 03:17:54;;;;;;;5.53;2.35;;;;;;;;;;5003060;28;20040;-65
2022/09/26 03:20:21;;;;;;;7.95;2.15;;;;;;;;;;4990295;28;20058;-65
2022/09/26 03:22:50;;;;;;;6.78;1.92;;;;;;;;;;4977810;28;20467;-65
2022/09/26 03:25:19;;;;;;;5.30;1.98;;;;;;;;;;4986204;28;20034;-65
2022/09/26 03:27:53;;;;;;;7.05;1.73;;;;;;;;;;4987199;28;20093;-65
2022/09/26 03:30:20;;;;;;;5.45;1.75;;;;;;;;;;4990526;28;20030;-65
2022/09/26 03:33:12;;;;;;;6.20;1.77;;;;;;;;;;4989058;28;20042;-65
2022/09/26 03:35:39;;;;;;;4.35;1.80;;;;;;;;;;4988932;28;20056;-66
2022/09/26 03:38:05;;;;;;;8.55;1.75;;;;;;;;;;4987263;28;20078;-66
2022/09/26 03:40:36;;;;;;;4.30;1.73;;;;;;;;;;4980705;28;20058;-66
2022/09/26 03:43:31;;;;;;;8.95;1.85;;;;;;;;;;4929053;29;20126;-66
2022/09/26 03:46:01;;;;;;;6.38;1.73;;;;;;;;;;4930026;29;20075;-66
2022/09/26 03:48:27;;;;;;;4.43;1.50;;;;;;;;;;4922972;29;20067;-65
2022/09/26 03:50:53;;;;;;;6.50;1.80;;;;;;;;;;4930838;29;20400;-65
2022/09/26 03:53:19;;;;;;;12.00;1.92;;;;;;;;;;4926078;29;20067;-66
2022/09/26 03:55:46;;;;;;;6.32;1.77;;;;;;;;;;4927789;29;20043;-65
2022/09/26 03:58:14;;;;;;;7.93;1.95;;;;;;;;;;4921661;29;20192;-72
2022/09/26 04:00:40;;;;;;;6.10;1.70;;;;;;;;;;4917492;29;20027;-65
2022/09/26 04:03:07;;;;;;;7.63;1.73;;;;;;;;;;4933619;29;20035;-65
2022/09/26 04:05:39;;;;;;;6.63;1.63;;;;;;;;;;4932060;29;20496;-65
2022/09/26 04:08:06;;;;;;;8.65;1.70;;;;;;;;;;4930336;29;20051;-65
2022/09/26 04:10:33;;;;;;;5.25;1.60;;;;;;;;;;4910597;29;20507;-65
2022/09/26 04:13:00;;;;;;;7.43;1.52;;;;;;;;;;4919278;29;20467;-65
2022/09/26 04:15:28;;;;;;;3.65;1.00;;;;;;;;;;4917543;29;20055;-65
2022/09/26 04:18:04;;;;;;;5.70;1.50;;;;;;;;;;4933058;29;20032;-65
2022/09/26 04:20:30;;;;;;;7.07;1.50;;;;;;;;;;4967942;28;20038;-65
2022/09/26 04:22:58;;;;;;;4.20;1.23;;;;;;;;;;4992071;28;20429;-65
2022/09/26 04:25:24;;;;;;;6.45;1.58;;;;;;;;;;4991694;28;20120;-66
2022/09/26 04:27:50;;;;;;;10.43;1.58;;;;;;;;;;4993580;28;20041;-65
2022/09/26 04:30:17;;;;;;;6.35;1.20;;;;;;;;;;4991728;28;20041;-65
2022/09/26 04:32:48;;;;;;;6.77;1.40;;;;;;;;;;4993130;28;20108;-65
2022/09/26 04:35:32;;;;;;;7.07;1.35;;;;;;;;;;4993493;28;20038;-65
2022/09/26 04:37:59;;;;;;;3.53;1.20;;;;;;;;;;4992589;28;20054;-65
2022/09/26 04:40:27;;;;;;;4.15;1.48;;;;;;;;;;4982028;28;20507;-65
2022/09/26 04:43:02;;;;;;;12.10;1.80;;;;;;;;;;4986357;28;20383;-65
2022/09/26 04:45:28;;;;;;;6.18;1.38;;;;;;;;;;4988540;28;20030;-65
2022/09/26 04:47:54;;;;;;;5.47;1.52;;;;;;;;;;4993273;28;20125;-65
2022/09/26 04:50:40;;;;;;;4.95;1.40;;;;;;;;;;4985418;28;20041;-65
2022/09/26 04:53:11;;;;;;;4.85;1.52;;;;;;;;;;5002118;28;20475;-65
2022/09/26 04:56:08;;;;;;;10.55;1.30;;;;;;;;;;4985009;28;20401;-65
2022/09/26 04:58:34;;;;;;;7.40;1.30;;;;;;;;;;4990336;28;20031;-65
2022/09/26 05:01:02;;;;;;;4.80;1.35;;;;;;;;;;4991958;28;20065;-65
2022/09/26 05:03:36;;;;;;;4.07;1.20;;;;;;;;;;4991866;28;20129;-65
2022/09/26 05:06:06;;;;;;;5.50;1.63;;;;;;;;;;4993294;28;20038;-65
2022/09/26 05:08:32;;;;;;;7.47;1.23;;;;;;;;;;4988572;28;20098;-65
2022/09/26 05:10:58;;;;;;;6.25;1.38;;;;;;;;;;4987044;28;20479;-65
2022/09/26 05:13:25;;;;;;;7.40;1.20;;;;;;;;;;4992859;28;20048;-65
2022/09/26 05:15:54;;;;;;;8.40;1.45;;;;;;;;;;4989785;28;20513;-65
2022/09/26 05:18:22;;;;;;;6.97;1.65;;;;;;;;;;4989949;28;20033;-65
2022/09/26 05:20:49;;;;;;;6.13;1.35;;;;;;;;;;4982387;28;20062;-65
2022/09/26 05:26:18;;;;;;;8.68;1.65;;;;;;;;;;4988783;28;20022;-65
2022/09/26 05:26:19;;;;;;;9.35;2.78;;;;;;;;;;4989186;28;20030;-65
2022/09/26 05:28:55;;;;;;;4.22;1.48;;;;;;;;;;4967907;28;20391;-65
2022/09/26 05:31:27;;;;;;;5.82;1.60;;;;;;;;;;4982706;28;20026;-65
2022/09/26 05:33:57;;;;;;;4.88;1.67;;;;;;;;;;4990132;28;20733;-65
2022/09/26 05:36:24;;;;;;;7.07;1.70;;;;;;;;;;4990936;28;20112;-65
2022/09/26 05:38:51;;;;;;;5.70;1.88;;;;;;;;;;4991806;28;20042;-65
2022/09/26 05:41:18;;;;;;;4.25;1.27;;;;;;;;;;4975987;28;20018;-65
2022/09/26 05:43:45;;;;;;;5.97;1.38;;;;;;;;;;4991356;28;20026;-65
2022/09/26 05:46:12;;;;;;;3.78;1.38;;;;;;;;;;4992273;28;20030;-65
2022/09/26 05:48:44;;;;;;;6.95;1.25;;;;;;;;;;4985395;28;20398;-65
2022/09/26 05:51:17;;;;;;;5.25;1.73;;;;;;;;;;4992463;28;20101;-65
2022/09/26 05:53:44;;;;;;;5.30;1.25;;;;;;;;;;4987849;28;20019;-65
2022/09/26 05:56:13;;;;;;;3.55;1.30;;;;;;;;;;4990376;28;20050;-65
2022/09/26 05:59:08;;;;;;;4.53;1.15;;;;;;;;;;4978614;28;20046;-65
2022/09/26 06:01:53;;;;;;;3.47;1.20;;;;;;;;;;4992540;28;20409;-65
2022/09/26 06:04:45;;;;;;;5.40;1.38;;;;;;;;;;4988006;28;20042;-65
2022/09/26 06:07:38;;;;;;;2.13;0.70;;;;;;;;;;4975180;28;20117;-65
2022/09/26 06:10:09;;;;;;;5.47;0.90;;;;;;;;;;4989024;28;20030;-65
2022/09/26 06:12:52;;;;;;;3.17;0.93;;;;;;;;;;4987415;28;20121;-65
2022/09/26 06:15:18;;;;;;;4.72;1.10;;;;;;;;;;4990017;28;20477;-65
2022/09/26 06:17:46;;;;;;;4.13;1.75;;;;;;;;;;4982456;28;20014;-65
2022/09/26 06:20:12;;;;;;;2.95;1.20;;;;;;;;;;4978954;28;20375;-64
2022/09/26 06:22:42;;;;;;;6.75;1.80;;;;;;;;;;4987228;28;20027;-64
2022/09/26 06:25:09;;;;;;;7.00;1.63;;;;;;;;;;4971413;28;20038;-64
2022/09/26 06:27:37;;;;;;;6.85;1.88;;;;;;;;;;4972288;28;20027;-64
2022/09/26 06:30:09;;;;;;;8.88;2.10;;;;;;;;;;4985312;28;20093;-64
2022/09/26 06:32:38;;;;;;;11.65;1.88;;;;;;;;;;4974937;28;20034;-65
2022/09/26 06:35:20;;;;;;;12.98;2.47;;;;;;;;;;4983797;28;20086;-65
2022/09/26 06:38:02;;;;;;;17.17;2.90;;;;;;;;;;4991115;28;20045;-65
2022/09/26 06:40:28;;;;;;;11.93;2.35;;;;;;;;;;4992447;28;20513;-65
2022/09/26 06:42:55;;;;;;;10.77;4.20;;;;;;;;;;4990768;28;20040;-65
2022/09/26 06:45:26;;;;;;;10.88;2.08;;;;;;;;;;4990438;28;20029;-65
2022/09/26 06:48:14;;;;;;;11.68;2.50;;;;;;;;;;4991073;28;20041;-65
2022/09/26 06:50:59;;;;;;;14.40;4.05;;;;;;;;;;4990847;28;20085;-65
2022/09/26 06:53:26;;;;;;;11.20;2.28;;;;;;;;;;4990015;28;20088;-65
2022/09/26 06:55:52;;;;;;;8.32;2.35;;;;;;;;;;4991917;28;20034;-65
2022/09/26 06:58:18;;;;;;;10.63;2.80;;;;;;;;;;4991686;28;20038;-65
2022/09/26 07:00:55;;;;;;;9.68;2.70;;;;;;;;;;4991245;28;20113;-65
2022/09/26 07:03:40;;;;;;;6.03;2.20;;;;;;;;;;4991203;28;20042;-65
2022/09/26 07:06:25;;;;;;;14.88;9.48;;;;;;;;;;4970209;28;20122;-65
2022/09/26 07:08:54;;;;;;;10.63;2.70;;;;;;;;;;4974293;28;20026;-65
2022/09/26 07:11:32;;;;;;;7.53;2.00;;;;;;;;;;4989393;28;20096;-65
2022/09/26 07:14:00;;;;;;;9.65;3.17;;;;;;;;;;4989573;28;20037;-65
2022/09/26 07:16:27;;;;;;;9.50;2.15;;;;;;;;;;4989592;28;20572;-65
2022/09/26 07:19:12;;;;;;;7.10;2.00;;;;;;;;;;4992317;28;20077;-65
2022/09/26 07:21:54;;;;;;;8.67;2.57;;;;;;;;;;4991370;28;20033;-65
2022/09/26 07:24:30;;;;;;;9.77;2.45;;;;;;;;;;4991390;28;20657;-65
2022/09/26 07:26:57;;;;;;;9.20;2.75;;;;;;;;;;4991096;28;20084;-65
2022/09/26 07:29:24;;;;;;;10.07;2.20;;;;;;;;;;4991369;28;20049;-65
2022/09/26 07:31:51;;;;;;;12.55;1.95;;;;;;;;;;4991077;28;20026;-65
2022/09/26 07:34:36;;;;;;;13.98;2.60;;;;;;;;;;4996582;28;20128;-65
2022/09/26 07:37:02;;;;;;;10.40;3.30;;;;;;;;;;4994871;28;20109;-65
2022/09/26 07:39:28;;;;;;;8.77;2.47;;;;;;;;;;4994804;28;20046;-65
2022/09/26 07:41:55;;;;;;;6.80;2.10;;;;;;;;;;4994554;28;20042;-65
2022/09/26 07:44:22;;;;;;;5.47;2.22;;;;;;;;;;4994853;28;20520;-65
2022/09/26 07:52:55;;;;;;;3.58;1.88;;;;;;;;;;4974256;28;20038;-65
2022/09/26 07:55:26;;;;;;;5.60;1.55;;;;;;;;;;4974082;28;20050;-65
2022/09/26 07:58:11;;;;;;;6.45;1.60;;;;;;;;;;4963657;28;20852;-65
2022/09/26 08:00:56;;;;;;;5.60;2.03;;;;;;;;;;4954988;29;20082;-65
2022/09/26 08:03:44;;;;;;;8.60;1.80;;;;;;;;;;4954387;29;20050;-65
2022/09/26 08:06:21;;;;;;;4.18;1.70;;;;;;;;;;4954723;29;20031;-65
2022/09/26 08:08:48;;;;;;;5.70;1.60;;;;;;;;;;4954596;29;20039;-65
2022/09/26 08:11:33;;;;;;;5.35;1.90;;;;;;;;;;4955174;29;20430;-65
2022/09/26 08:14:20;;;;;;;6.55;1.83;;;;;;;;;;4954626;29;20126;-65
2022/09/26 08:17:05;;;;;;;4.28;2.20;;;;;;;;;;4954605;29;20526;-65
2022/09/26 08:19:32;;;;;;;7.35;1.52;;;;;;;;;;4954543;29;20023;-65
2022/09/26 08:21:58;;;;;;;3.45;2.53;;;;;;;;;;4954583;28;20127;-65
2022/09/26 08:24:24;;;;;;;4.70;1.38;;;;;;;;;;4954088;29;20411;-65
2022/09/26 08:27:10;;;;;;;3.15;1.20;;;;;;;;;;4967295;28;20125;-65
2022/09/26 08:29:41;;;;;;;3.33;1.20;;;;;;;;;;4974789;28;20067;-65
2022/09/26 08:32:07;;;;;;;5.13;1.50;;;;;;;;;;4974526;28;20042;-65
2022/09/26 08:34:35;;;;;;;8.43;1.67;;;;;;;;;;4974804;28;20058;-65
2022/09/26 08:37:20;;;;;;;10.02;1.63;;;;;;;;;;4975932;28;20046;-65
2022/09/26 08:40:06;;;;;;;12.18;1.83;;;;;;;;;;4975232;28;20062;-65
2022/09/26 08:42:53;;;;;;;13.75;2.25;;;;;;;;;;4975874;28;20085;-65
2022/09/26 08:48:53;;;;;;;17.88;2.80;;;;;;;;;;4976948;28;20043;-65
2022/09/26 08:51:20;;;;;;;32.45;5.32;;;;;;;;;;4993488;28;20514;-65
2022/09/26 08:53:50;;;;;;;24.55;4.57;;;;;;;;;;4993379;28;20487;-65
2022/09/26 08:56:19;;;;;;;14.93;3.90;;;;;;;;;;4993520;28;20037;-65
2022/09/26 08:58:50;;;;;;;15.65;4.15;;;;;;;;;;4993782;28;20431;-65
2022/09/26 09:01:22;;;;;;;32.38;5.60;;;;;;;;;;4993455;28;20375;-65
2022/09/26 09:04:17;;;;;;;28.17;5.15;;;;;;;;;;4994239;28;20038;-65
2022/09/26 09:06:43;;;;;;;15.45;3.13;;;;;;;;;;4993679;28;20030;-65
2022/09/26 09:09:14;;;;;;;13.23;4.18;;;;;;;;;;4992925;28;20026;-65
2022/09/26 09:12:06;;;;;;;21.70;4.10;;;;;;;;;;4994776;28;20041;-65
2022/09/26 09:14:32;;;;;;;16.83;3.38;;;;;;;;;;4993312;28;20036;-65
2022/09/26 09:17:12;;;;;;;12.73;3.22;;;;;;;;;;4994397;28;20065;-65
2022/09/26 09:19:58;;;;;;;19.35;3.97;;;;;;;;;;4994693;28;20042;-65
2022/09/26 09:22:57;;;;;;;22.63;4.40;;;;;;;;;;4994231;28;20053;-65
2022/09/26 09:25:30;;;;;;;29.95;5.28;;;;;;;;;;4992973;28;20041;-65
2022/09/26 09:28:15;;;;;;;32.22;5.82;;;;;;;;;;4993051;28;20228;-65
2022/09/26 09:30:42;;;;;;;12.65;3.05;;;;;;;;;;4993109;28;20085;-65
2022/09/26 09:33:18;;;;;;;19.25;3.47;;;;;;;;;;4994083;28;20030;-65
2022/09/26 09:35:59;;;;;;;18.88;3.28;;;;;;;;;;4992689;28;20536;-65
2022/09/26 09:38:45;;;;;;;19.02;3.35;;;;;;;;;;4992647;28;20034;-65
2022/09/26 09:41:45;;;;;;;20.17;3.42;;;;;;;;;;4992728;28;20030;-65
2022/09/26 09:44:17;;;;;;;21.27;3.10;;;;;;;;;;4992664;28;20038;-65
2022/09/26 09:46:43;;;;;;;13.00;3.13;;;;;;;;;;4992590;28;20023;-65
2022/09/26 09:49:09;;;;;;;18.13;2.92;;;;;;;;;;4992362;28;20061;-65
2022/09/26 09:51:37;;;;;;;15.38;3.17;;;;;;;;;;4992276;28;20045;-65
2022/09/26 09:54:09;;;;;;;16.67;3.05;;;;;;;;;;4993842;28;20479;-65
2022/09/26 09:56:58;;;;;;;25.13;2.80;;;;;;;;;;4992014;28;20498;-65
2022/09/26 09:59:39;;;;;;;11.73;1.85;;;;;;;;;;4992337;28;20031;-65
2022/09/26 10:02:07;;;;;;;;;;;;;;;;;;4992820;28;20109;-65
2022/09/26 10:04:36;;;;;;;17.48;2.72;;;;;;;;;;4992369;28;19909;-65
2022/09/26 10:07:04;;;;;;;14.10;2.20;;;;;;;;;;4991955;28;20030;-65
2022/09/26 10:09:37;;;;;;;17.13;2.13;;;;;;;;;;4992283;28;20033;-65
2022/09/26 10:12:27;;;;;;;15.10;2.42;;;;;;;;;;4993443;28;20049;-65
2022/09/26 10:15:29;;;;;;;29.52;2.97;;;;;;;;;;4971667;28;20039;-65
2022/09/26 10:18:17;;;;;;;18.27;3.08;;;;;;;;;;4971876;28;20109;-65
2022/09/26 10:20:56;;;;;;;19.98;2.47;;;;;;;;;;4971531;28;20153;-65
2022/09/26 10:23:23;;;;;;;16.30;2.42;;;;;;;;;;4971594;28;20039;-65
2022/09/26 10:25:50;;;;;;;18.98;3.35;;;;;;;;;;4971572;28;20134;-65
2022/09/26 10:28:30;;;;;;;25.90;3.60;;;;;;;;;;4971354;28;20034;-65
2022/09/26 10:31:03;;;;;;;22.65;2.60;;;;;;;;;;4971533;28;20534;-65
2022/09/26 10:33:36;;;;;;;27.75;4.47;;;;;;;;;;4971516;28;20060;-65
2022/09/26 10:36:11;;;;;;;28.67;5.05;;;;;;;;;;4970973;28;20411;-65
2022/09/26 10:41:43;;;;;;;21.35;3.83;;;;;;;;;;4971414;28;20057;-65
2022/09/26 10:44:22;;;;;;;23.40;3.83;;;;;;;;;;4971094;28;20039;-65
2022/09/26 10:47:09;;;;;;;;;;;;;;;;;;4971858;28;20046;-65
2022/09/26 10:50:09;;;;;;;;;;;;;;;;;;4966317;28;19914;-65
2022/09/26 10:53:07;;;;;;;19.85;3.88;;;;;;;;;;4990674;28;19914;-65
2022/09/26 10:55:38;;;;;;;31.60;4.25;;;;;;;;;;4990767;28;20039;-65
2022/09/26 10:58:08;;;;;;;24.95;5.05;;;;;;;;;;4974394;28;20679;-65
2022/09/26 11:00:38;;;;;;;19.05;3.40;;;;;;;;;;4974483;28;20030;-65
2022/09/26 11:03:15;;;;;;;26.42;3.65;;;;;;;;;;4974049;28;20035;-65
2022/09/26 11:06:01;;;;;;;29.13;3.95;;;;;;;;;;4990693;28;20038;-65
2022/09/26 11:08:34;;;;;;;24.20;4.40;;;;;;;;;;4976086;28;20045;-65
2022/09/26 11:11:35;;;;;;;24.27;4.85;;;;;;;;;;4994391;28;20038;-65
2022/09/26 11:14:07;;;;;;;19.10;4.10;;;;;;;;;;4978482;28;20030;-65
2022/09/26 11:16:38;;;;;;;26.75;4.65;;;;;;;;;;4994466;28;20042;-65
2022/09/26 11:19:21;;;;;;;27.02;4.72;;;;;;;;;;4977950;28;20038;-65
2022/09/26 11:21:50;;;;;;;24.00;4.20;;;;;;;;;;4978310;28;20134;-65
2022/09/26 11:24:29;;;;;;;21.40;4.28;;;;;;;;;;4978210;28;20054;-65
2022/09/26 11:26:58;;;;;;;21.70;3.80;;;;;;;;;;4978211;28;20121;-65
2022/09/26 11:29:47;;;;;;;36.00;4.82;;;;;;;;;;4984729;28;20454;-65
2022/09/26 11:32:17;;;;;;;26.52;5.63;;;;;;;;;;4994613;28;20042;-65
2022/09/26 11:34:53;;;;;;;21.52;3.97;;;;;;;;;;4996565;28;20121;-65
2022/09/26 11:37:20;;;;;;;35.78;4.82;;;;;;;;;;4995065;28;20026;-65
2022/09/26 11:40:00;;;;;;;32.60;6.05;;;;;;;;;;4996127;28;20050;-65
2022/09/26 11:42:29;;;;;;;31.15;5.90;;;;;;;;;;4995139;28;20097;-65
2022/09/26 11:44:57;;;;;;;30.40;5.28;;;;;;;;;;4995054;28;20030;-65
2022/09/26 11:47:23;;;;;;;29.00;5.68;;;;;;;;;;4995936;28;20038;-65
2022/09/26 11:49:59;;;;;;;26.02;5.45;;;;;;;;;;4994889;28;20029;-65
2022/09/26 11:52:47;;;;;;;36.58;5.32;;;;;;;;;;4994690;28;20565;-65
2022/09/26 11:55:14;;;;;;;32.20;6.05;;;;;;;;;;4996093;28;20089;-65
2022/09/26 11:57:42;;;;;;;33.53;5.90;;;;;;;;;;4996029;28;20068;-65
2022/09/26 12:00:23;;;;;;;24.77;4.88;;;;;;;;;;4995930;28;20083;-65
2022/09/26 12:03:04;;;;;;;33.78;5.60;;;;;;;;;;4995782;28;20069;-65
2022/09/26 12:05:41;;;;;;;38.13;5.53;;;;;;;;;;4995741;28;20490;-65
2022/09/26 12:08:07;;;;;;;32.83;5.90;;;;;;;;;;4995683;28;20034;-65
2022/09/26 12:10:56;;;;;;;32.30;6.60;;;;;;;;;;4995611;28;20026;-65
2022/09/26 12:13:31;;;;;;;32.05;5.95;;;;;;;;;;4995647;28;20038;-65
2022/09/26 12:15:57;;;;;;;41.15;6.85;;;;;;;;;;4995462;28;20088;-65
2022/09/26 12:18:55;;;;;;;34.97;6.53;;;;;;;;;;4994748;28;20512;-65
2022/09/26 12:21:21;;;;;;;32.28;5.88;;;;;;;;;;4973928;28;20125;-66
2022/09/26 12:23:48;;;;;;;39.50;5.90;;;;;;;;;;4974025;28;20035;-65
2022/09/26 12:26:14;;;;;;;27.55;5.45;;;;;;;;;;4973886;28;20045;-65
2022/09/26 12:28:46;;;;;;;33.45;6.47;;;;;;;;;;4973925;28;20027;-66
2022/09/26 12:31:30;;;;;;;32.92;6.57;;;;;;;;;;4973578;28;20070;-66
2022/09/26 12:34:28;;;;;;;35.47;5.97;;;;;;;;;;4973894;28;20526;-66
2022/09/26 12:37:11;;;;;;;33.08;6.40;;;;;;;;;;4973568;28;20039;-66
2022/09/26 12:39:40;;;;;;;31.50;5.72;;;;;;;;;;4973320;28;20129;-66
2022/09/26 12:42:23;;;;;;;44.13;8.90;;;;;;;;;;4973679;28;20045;-66
2022/09/26 12:45:08;;;;;;;42.83;6.15;;;;;;;;;;4973241;28;20174;-66
2022/09/26 12:47:34;;;;;;;41.47;6.75;;;;;;;;;;4973152;28;20522;-66
2022/09/26 12:50:11;;;;;;;44.15;7.00;;;;;;;;;;4973423;28;20407;-66
2022/09/26 12:52:56;;;;;;;46.25;7.55;;;;;;;;;;4964541;28;20039;-66
2022/09/26 12:55:34;;;;;;;47.78;7.80;;;;;;;;;;4953909;28;20511;-66
2022/09/26 12:58:19;;;;;;;36.20;5.43;;;;;;;;;;4992953;28;20061;-66
2022/09/26 13:01:01;;;;;;;49.80;7.07;;;;;;;;;;4994533;28;20088;-66
2022/09/26 13:03:36;;;;;;;27.55;5.63;;;;;;;;;;4994629;28;20502;-66
2022/09/26 13:06:12;;;;;;;46.85;6.40;;;;;;;;;;4994836;28;20037;-66
2022/09/26 13:09:03;;;;;;;35.25;6.70;;;;;;;;;;4994510;28;20034;-66
2022/09/26 13:11:49;;;;;;;33.53;5.90;;;;;;;;;;4993271;28;20038;-66
2022/09/26 13:14:18;;;;;;;38.35;5.65;;;;;;;;;;4994270;28;20034;-66
2022/09/26 13:16:54;;;;;;;37.38;6.47;;;;;;;;;;4994494;28;20026;-66
2022/09/26 13:19:33;;;;;;;29.75;5.18;;;;;;;;;;4994602;28;20022;-66
2022/09/26 13:22:02;;;;;;;32.10;6.35;;;;;;;;;;4994596;28;20425;-66
2022/09/26 13:24:45;;;;;;;31.55;5.28;;;;;;;;;;4994111;28;20081;-66
2022/09/26 13:27:11;;;;;;;;;;;;;;;;;;4994770;28;20046;-66
2022/09/26 13:29:38;;;;;;;29.02;4.82;;;;;;;;;;4993771;28;20000;-66
2022/09/26 13:32:11;;;;;;;32.05;5.70;;;;;;;;;;4993360;28;20030;-66
2022/09/26 13:34:39;;;;;;;30.65;5.32;;;;;;;;;;4994059;28;20052;-66
2022/09/26 13:37:10;;;;;;;28.20;5.18;;;;;;;;;;4994233;28;20073;-66
2022/09/26 13:39:47;;;;;;;31.63;5.93;;;;;;;;;;4993774;28;20100;-66
2022/09/26 13:42:13;;;;;;;32.78;5.90;;;;;;;;;;4994027;28;20078;-66
2022/09/26 13:44:48;;;;;;;38.58;7.53;;;;;;;;;;4993576;28;20038;-66
2022/09/26 13:47:18;;;;;;;40.15;6.97;;;;;;;;;;4993889;28;20035;-66
2022/09/26 13:49:44;;;;;;;36.67;5.30;;;;;;;;;;4993672;28;20081;-66
2022/09/26 13:52:20;;;;;;;30.05;5.80;;;;;;;;;;4993859;28;20081;-66
2022/09/26 13:54:46;;;;;;;37.03;6.15;;;;;;;;;;4993773;28;20023;-66
2022/09/26 13:57:30;;;;;;;36.53;7.45;;;;;;;;;;4991152;28;20121;-65
2022/09/26 13:59:57;;;;;;;33.42;5.55;;;;;;;;;;4975782;28;20027;-65
2022/09/26 14:02:23;;;;;;;35.20;7.72;;;;;;;;;;4979829;28;20015;-66
2022/09/26 14:04:51;;;;;;;25.55;5.85;;;;;;;;;;4987996;28;20027;-66
2022/09/26 14:10:38;;;;;;;23.50;4.70;;;;;;;;;;4985515;28;20038;-66
2022/09/26 14:13:07;;;;;;;28.17;6.03;;;;;;;;;;4989483;28;20077;-66
2022/09/26 14:15:48;;;;;;;22.88;4.40;;;;;;;;;;5004251;28;20022;-66
2022/09/26 14:18:31;;;;;;;25.80;4.15;;;;;;;;;;4993543;28;20035;-66
2022/09/26 14:21:06;;;;;;;29.35;4.90;;;;;;;;;;4993097;28;20026;-66
2022/09/26 14:23:42;;;;;;;25.00;4.78;;;;;;;;;;4992272;28;20037;-66
2022/09/26 14:26:09;;;;;;;34.28;5.47;;;;;;;;;;4983225;28;20034;-66
2022/09/26 14:28:36;;;;;;;24.02;4.43;;;;;;;;;;4981524;28;20220;-66
2022/09/26 14:31:21;;;;;;;45.33;7.05;;;;;;;;;;4982412;28;20399;-66
2022/09/26 14:33:48;;;;;;;24.42;5.32;;;;;;;;;;4991353;28;20089;-66
2022/09/26 14:36:17;;;;;;;23.58;4.55;;;;;;;;;;4984189;28;20037;-66
2022/09/26 14:38:48;;;;;;;23.42;4.38;;;;;;;;;;4987596;28;20023;-66
2022/09/26 14:41:18;;;;;;;30.52;5.80;;;;;;;;;;4999181;28;20036;-66
2022/09/26 14:43:45;;;;;;;23.73;4.60;;;;;;;;;;4989567;28;20556;-66
2022/09/26 14:46:24;;;;;;;37.83;6.65;;;;;;;;;;4990798;28;20030;-66
2022/09/26 14:48:58;;;;;;;28.35;6.32;;;;;;;;;;4987656;28;20026;-66
2022/09/26 14:51:26;;;;;;;27.30;5.70;;;;;;;;;;4992898;28;20031;-66
2022/09/26 14:53:55;;;;;;;35.75;6.93;;;;;;;;;;4993032;28;20026;-66
2022/09/26 14:56:26;;;;;;;24.98;5.82;;;;;;;;;;4992495;28;20037;-66
2022/09/26 14:58:52;;;;;;;29.63;5.53;;;;;;;;;;4992241;28;20498;-66
2022/09/26 15:01:30;;;;;;;36.80;5.93;;;;;;;;;;4978631;28;20019;-66
2022/09/26 15:04:04;;;;;;;34.63;6.07;;;;;;;;;;4975430;28;20050;-66
2022/09/26 15:06:35;;;;;;;29.42;4.93;;;;;;;;;;4975218;28;20031;-66
2022/09/26 15:09:07;;;;;;;31.65;5.40;;;;;;;;;;4976634;28;20022;-66
2022/09/26 15:11:54;;;;;;;25.63;5.45;;;;;;;;;;4973657;28;20103;-66
2022/09/26 15:14:42;;;;;;;27.38;4.88;;;;;;;;;;4977027;28;20027;-66
2022/09/26 15:17:16;;;;;;;28.08;4.15;;;;;;;;;;4973437;28;20031;-66
2022/09/26 15:19:48;;;;;;;27.85;5.45;;;;;;;;;;4973116;28;20038;-67
2022/09/26 15:22:18;;;;;;;26.73;4.55;;;;;;;;;;4977248;28;20061;-67
2022/09/26 15:24:44;;;;;;;25.40;4.55;;;;;;;;;;4974383;28;20034;-66
2022/09/26 15:27:25;;;;;;;34.47;5.63;;;;;;;;;;4974223;28;20019;-66
2022/09/26 15:29:56;;;;;;;36.28;7.00;;;;;;;;;;4972558;28;20038;-66